Terminal Aerodrome Forecast
Issued by NWS

Home | Current Version | Previous Version | Text Only | Print | Product List | Glossary On
Versions: 1 2 3 4 5 6 7 8 9 10 11 12 13 14 15 16 17 18 19 20 21 22 23 24 25 26 27 28 29 30 31 32 33 34 35 36 37
000
FTUS43 KAPX 221739
TAFMBL
TAF
KMBL 221739Z 2218/2318 10009KT 5SM SHRA BR OVC008
     FM222300 12011G21KT 6SM -SHRA BR OVC009 WS020/09035KT
     FM230300 16013KT 4SM -SHRA BR VCTS OVC010CB WS020/19045KT
     FM230700 19011KT 3SM -SHRA BR VCTS OVC007CB WS020/21045KT
     FM231000 34009KT 4SM -SHRA BR OVC005 WS020/21030KT
     FM231400 34011G21KT 2SM -SHRA BR OVC006=

USA.gov is the U.S. government's official web portal to all federal, state and local government web resources and services.